TAF Text Data
IDs:
Format:
Raw Decoded Include METAR

Data at: 0131 UTC 31 May 2020

METAR for:KRYW (Lago Vista/Allen Arp, TX, US)
Text:KRYW 310115Z AUTO 08003KT 10SM CLR 24/14 A3007 RMK AO2 T02430144
Temperature: 24.3°C ( 76°F)
Dewpoint: 14.4°C ( 58°F) [RH = 54%]
Pressure (altimeter):30.07 inches Hg (1018.4 mb)
Winds:from the E (80 degrees) at 3 MPH (3 knots; 1.5 m/s)
Visibility:10 or more sm (16+ km)
Ceiling:at least 12,000 feet AGL
Clouds:sky clear below 12,000 feet AGL
QC Flag:automated observation with no human augmentation

TAF for:KRYW (Lago Vista/Allen Arp, TX, US)
Text:No data found